Time;durP1;ratioP1;P1;durP2;ratioP2;P2;SDS_P1;SDS_P2;PMS_P1;PMS_P2;Temp;Humidity;BMP_temperature;BMP_pressure;BME280_temperature;BME280_humidity;BME280_pressure;Samples;Min_cycle;Max_cycle;Signal;HPM_P1;HPM_P2
2022/10/09 00:00:44;;;;;;;8.68;3.60;;;;;;;;;;4971651;28;20397;-76
2022/10/09 00:03:10;;;;;;;10.05;3.78;;;;;;;;;;4972596;28;20039;-76
2022/10/09 00:05:36;;;;;;;12.13;4.13;;;;;;;;;;4972197;28;20100;-76
2022/10/09 00:08:02;;;;;;;11.75;4.70;;;;;;;;;;4970965;28;20051;-76
2022/10/09 00:10:28;;;;;;;8.38;3.60;;;;;;;;;;4972170;28;20055;-76
2022/10/09 00:12:54;;;;;;;11.73;4.32;;;;;;;;;;4972457;28;20081;-76
2022/10/09 00:15:20;;;;;;;11.05;4.28;;;;;;;;;;4972349;28;20042;-76
2022/10/09 00:17:46;;;;;;;8.82;3.78;;;;;;;;;;4972084;28;20100;-76
2022/10/09 00:20:13;;;;;;;11.10;4.82;;;;;;;;;;4971677;28;20067;-76
2022/10/09 00:22:39;;;;;;;13.23;3.95;;;;;;;;;;4970892;28;20077;-76
2022/10/09 00:25:05;;;;;;;15.27;4.38;;;;;;;;;;4972176;28;20129;-76
2022/10/09 00:27:31;;;;;;;6.85;3.50;;;;;;;;;;4972156;28;20042;-76
2022/10/09 00:29:57;;;;;;;10.13;3.97;;;;;;;;;;4972159;28;20077;-76
2022/10/09 00:32:24;;;;;;;8.85;3.90;;;;;;;;;;4970813;28;20054;-76
2022/10/09 00:34:50;;;;;;;11.00;4.00;;;;;;;;;;4971592;28;20039;-76
2022/10/09 00:37:16;;;;;;;9.38;3.40;;;;;;;;;;4972153;28;20097;-76
2022/10/09 00:39:42;;;;;;;11.38;4.22;;;;;;;;;;4972665;28;20057;-76
2022/10/09 00:42:13;;;;;;;6.72;3.50;;;;;;;;;;4972446;28;20043;-76
2022/10/09 00:44:45;;;;;;;8.77;3.80;;;;;;;;;;4972236;28;20053;-76
2022/10/09 00:47:17;;;;;;;10.00;3.92;;;;;;;;;;4972412;28;20046;-76
2022/10/09 00:49:43;;;;;;;10.00;3.60;;;;;;;;;;4972728;28;20049;-76
2022/10/09 00:52:09;;;;;;;9.23;3.60;;;;;;;;;;4972074;28;20046;-76
2022/10/09 00:54:38;;;;;;;8.60;3.60;;;;;;;;;;4972707;28;20062;-76
2022/10/09 00:57:04;;;;;;;8.20;3.92;;;;;;;;;;4954383;28;20043;-76
2022/10/09 00:59:31;;;;;;;9.25;3.90;;;;;;;;;;4971909;28;20050;-76
2022/10/09 01:01:57;;;;;;;9.18;4.00;;;;;;;;;;4971956;28;20050;-76
2022/10/09 01:04:23;;;;;;;9.07;3.60;;;;;;;;;;4973697;28;20087;-77
2022/10/09 01:06:57;;;;;;;11.07;3.95;;;;;;;;;;4974181;28;20055;-76
2022/10/09 01:09:25;;;;;;;11.18;4.35;;;;;;;;;;4976103;28;20043;-76
2022/10/09 01:12:06;;;;;;;10.35;4.00;;;;;;;;;;4977635;28;20054;-76
2022/10/09 01:14:34;;;;;;;8.10;3.72;;;;;;;;;;4979317;28;20051;-76
2022/10/09 01:17:20;;;;;;;8.68;3.92;;;;;;;;;;4976632;28;20039;-76
2022/10/09 01:20:05;;;;;;;9.25;4.13;;;;;;;;;;4968135;28;20058;-76
2022/10/09 01:22:43;;;;;;;6.82;3.50;;;;;;;;;;4975228;28;20564;-76
2022/10/09 01:25:27;;;;;;;12.27;3.90;;;;;;;;;;4974733;28;20046;-76
2022/10/09 01:27:53;;;;;;;10.43;4.10;;;;;;;;;;4975134;28;20046;-76
2022/10/09 01:30:19;;;;;;;13.88;4.22;;;;;;;;;;4974746;28;20039;-76
2022/10/09 01:32:48;;;;;;;10.70;3.88;;;;;;;;;;4974833;28;20081;-76
2022/10/09 01:35:14;;;;;;;9.65;4.03;;;;;;;;;;4975126;28;20088;-76
2022/10/09 01:37:42;;;;;;;9.43;3.88;;;;;;;;;;4974777;28;20517;-76
2022/10/09 01:40:09;;;;;;;9.02;4.07;;;;;;;;;;4974939;28;20051;-76
2022/10/09 01:42:35;;;;;;;9.25;4.00;;;;;;;;;;4974473;28;20050;-76
2022/10/09 01:45:01;;;;;;;7.55;3.70;;;;;;;;;;4974750;28;20082;-76
2022/10/09 01:47:27;;;;;;;8.23;3.70;;;;;;;;;;4974400;28;20070;-76
2022/10/09 01:49:58;;;;;;;6.93;3.67;;;;;;;;;;4974717;28;20199;-76
2022/10/09 01:52:27;;;;;;;11.07;3.92;;;;;;;;;;4973267;28;20481;-77
2022/10/09 01:55:13;;;;;;;10.57;3.63;;;;;;;;;;4974865;28;20124;-76
2022/10/09 01:57:45;;;;;;;9.07;3.85;;;;;;;;;;4974055;28;20088;-76
2022/10/09 02:00:11;;;;;;;7.13;3.70;;;;;;;;;;4974248;28;20485;-76
2022/10/09 02:02:38;;;;;;;9.55;3.83;;;;;;;;;;4974193;28;20042;-76
2022/10/09 02:05:05;;;;;;;10.60;3.80;;;;;;;;;;4974138;28;20042;-76
2022/10/09 02:07:31;;;;;;;7.43;3.55;;;;;;;;;;4972800;28;20172;-77
2022/10/09 02:09:59;;;;;;;7.43;3.78;;;;;;;;;;4973836;28;20386;-76
2022/10/09 02:12:26;;;;;;;7.38;3.67;;;;;;;;;;4973979;28;20565;-77
2022/10/09 02:14:52;;;;;;;9.98;4.03;;;;;;;;;;4974421;28;20055;-76
2022/10/09 02:17:21;;;;;;;7.38;3.70;;;;;;;;;;4973850;28;20489;-76
2022/10/09 02:19:50;;;;;;;6.97;3.75;;;;;;;;;;4973742;28;20062;-76
2022/10/09 02:22:35;;;;;;;8.68;4.15;;;;;;;;;;4973363;28;20097;-76
2022/10/09 02:25:04;;;;;;;8.50;3.83;;;;;;;;;;4974127;28;20055;-76
2022/10/09 02:27:31;;;;;;;8.52;4.22;;;;;;;;;;4973753;28;20059;-76
2022/10/09 02:29:58;;;;;;;8.50;4.18;;;;;;;;;;4973884;28;20430;-76
2022/10/09 02:32:24;;;;;;;7.75;3.78;;;;;;;;;;4973835;28;20121;-76
2022/10/09 02:34:51;;;;;;;6.25;3.80;;;;;;;;;;4973793;28;20125;-76
2022/10/09 02:37:17;;;;;;;8.15;3.97;;;;;;;;;;4973951;28;20039;-76
2022/10/09 02:39:43;;;;;;;8.95;4.10;;;;;;;;;;4973578;28;20122;-76
2022/10/09 02:42:10;;;;;;;6.72;4.00;;;;;;;;;;4974238;28;20065;-76
2022/10/09 02:44:36;;;;;;;7.85;4.03;;;;;;;;;;4973180;28;20107;-76
2022/10/09 02:47:02;;;;;;;7.35;3.70;;;;;;;;;;4973302;28;20053;-76
2022/10/09 02:49:28;;;;;;;9.68;4.35;;;;;;;;;;4973212;28;20039;-76
2022/10/09 02:51:54;;;;;;;8.90;4.00;;;;;;;;;;4973784;28;20043;-76
2022/10/09 02:54:20;;;;;;;13.07;4.50;;;;;;;;;;4973640;28;20378;-76
2022/10/09 02:56:46;;;;;;;8.38;4.43;;;;;;;;;;4973042;28;20512;-76
2022/10/09 02:59:12;;;;;;;10.23;4.30;;;;;;;;;;4973295;28;20050;-76
2022/10/09 03:01:38;;;;;;;9.90;4.35;;;;;;;;;;4972086;28;20047;-76
2022/10/09 03:04:04;;;;;;;12.30;4.55;;;;;;;;;;4971872;28;20054;-76
2022/10/09 03:06:30;;;;;;;9.43;4.50;;;;;;;;;;4973544;28;20132;-76
2022/10/09 03:08:56;;;;;;;13.73;4.68;;;;;;;;;;4972789;28;20172;-76
2022/10/09 03:11:23;;;;;;;9.73;4.25;;;;;;;;;;4973468;28;20065;-76
2022/10/09 03:13:49;;;;;;;11.18;4.35;;;;;;;;;;4972109;28;20039;-76
2022/10/09 03:16:17;;;;;;;11.27;4.30;;;;;;;;;;4972887;28;20543;-76
2022/10/09 03:18:43;;;;;;;10.23;4.13;;;;;;;;;;4973299;28;20088;-76
2022/10/09 03:21:13;;;;;;;8.60;4.57;;;;;;;;;;4953644;28;20063;-77
2022/10/09 03:23:40;;;;;;;7.43;4.20;;;;;;;;;;4952702;29;20110;-76
2022/10/09 03:26:10;;;;;;;12.45;4.60;;;;;;;;;;4954243;28;20101;-76
2022/10/09 03:28:37;;;;;;;15.82;4.97;;;;;;;;;;4953869;28;20070;-76
2022/10/09 03:31:03;;;;;;;9.45;4.20;;;;;;;;;;4953712;28;20090;-76
2022/10/09 03:33:29;;;;;;;13.65;6.00;;;;;;;;;;4953836;28;20126;-77
2022/10/09 03:35:55;;;;;;;9.35;4.38;;;;;;;;;;4953646;28;20122;-76
2022/10/09 03:38:21;;;;;;;13.80;4.47;;;;;;;;;;4953481;28;20150;-76
2022/10/09 03:40:47;;;;;;;12.85;4.90;;;;;;;;;;4953502;28;20043;-76
2022/10/09 03:43:13;;;;;;;11.52;5.75;;;;;;;;;;4953322;28;20169;-76
2022/10/09 03:45:40;;;;;;;8.98;4.35;;;;;;;;;;4953258;28;20082;-76
2022/10/09 03:48:06;;;;;;;9.80;4.63;;;;;;;;;;4953285;28;20043;-76
2022/10/09 03:50:32;;;;;;;9.02;4.82;;;;;;;;;;4953250;28;20047;-76
2022/10/09 03:52:58;;;;;;;8.77;4.38;;;;;;;;;;4953710;28;20055;-76
2022/10/09 03:55:24;;;;;;;12.45;5.32;;;;;;;;;;4952887;28;20096;-77
2022/10/09 03:57:50;;;;;;;11.52;5.68;;;;;;;;;;4953324;28;20391;-76
2022/10/09 04:00:16;;;;;;;12.32;5.50;;;;;;;;;;4951854;29;20491;-76
2022/10/09 04:02:42;;;;;;;10.52;5.43;;;;;;;;;;4953148;28;20136;-76
2022/10/09 04:05:08;;;;;;;11.70;5.40;;;;;;;;;;4952354;29;20083;-76
2022/10/09 04:07:34;;;;;;;9.02;5.43;;;;;;;;;;4952943;28;20043;-76
2022/10/09 04:10:00;;;;;;;11.00;5.40;;;;;;;;;;4953411;28;20069;-76
2022/10/09 04:12:26;;;;;;;11.77;5.68;;;;;;;;;;4953305;28;20537;-76
2022/10/09 04:14:52;;;;;;;9.88;5.47;;;;;;;;;;4952941;28;20150;-76
2022/10/09 04:17:18;;;;;;;8.77;5.35;;;;;;;;;;4953449;28;20079;-76
2022/10/09 04:19:44;;;;;;;11.93;5.68;;;;;;;;;;4961078;28;20054;-76
2022/10/09 04:22:10;;;;;;;14.43;5.70;;;;;;;;;;4971784;28;20073;-76
2022/10/09 04:24:36;;;;;;;10.45;5.43;;;;;;;;;;4972417;28;20068;-76
2022/10/09 04:27:02;;;;;;;13.20;5.13;;;;;;;;;;4972137;28;20047;-77
2022/10/09 04:29:28;;;;;;;16.75;5.97;;;;;;;;;;4972374;28;20057;-76
2022/10/09 04:31:54;;;;;;;10.68;6.00;;;;;;;;;;4973599;28;20050;-77
2022/10/09 04:34:21;;;;;;;13.68;6.55;;;;;;;;;;4973100;28;20050;-76
2022/10/09 04:36:47;;;;;;;11.82;6.35;;;;;;;;;;4972281;28;20103;-76
2022/10/09 04:39:13;;;;;;;13.27;7.28;;;;;;;;;;4972102;28;20062;-76
2022/10/09 04:41:39;;;;;;;12.10;7.47;;;;;;;;;;4971943;28;20110;-76
2022/10/09 04:44:05;;;;;;;13.65;7.60;;;;;;;;;;4971587;28;20514;-76
2022/10/09 04:46:31;;;;;;;14.35;8.77;;;;;;;;;;4971461;28;20047;-76
2022/10/09 04:48:57;;;;;;;16.67;8.00;;;;;;;;;;4971488;28;20043;-76
2022/10/09 04:51:23;;;;;;;14.35;8.73;;;;;;;;;;4971378;28;20051;-76
2022/10/09 04:53:49;;;;;;;15.38;9.30;;;;;;;;;;4971919;28;20133;-76
2022/10/09 04:56:19;;;;;;;15.23;9.43;;;;;;;;;;4971718;28;20504;-76
2022/10/09 04:58:46;;;;;;;17.98;9.98;;;;;;;;;;4972025;28;20126;-76
2022/10/09 05:01:14;;;;;;;19.35;10.20;;;;;;;;;;4971640;28;20049;-76
2022/10/09 05:03:40;;;;;;;19.08;9.80;;;;;;;;;;4972015;28;20053;-76
2022/10/09 05:06:07;;;;;;;19.08;10.45;;;;;;;;;;4971761;28;20047;-76
2022/10/09 05:08:34;;;;;;;19.85;10.45;;;;;;;;;;4971895;28;20474;-76
2022/10/09 05:11:01;;;;;;;20.33;11.57;;;;;;;;;;4970007;28;20051;-76
2022/10/09 05:13:35;;;;;;;23.23;11.55;;;;;;;;;;4971689;28;20046;-76
2022/10/09 05:16:05;;;;;;;19.40;10.38;;;;;;;;;;4971992;28;20043;-76
2022/10/09 05:18:31;;;;;;;19.45;11.02;;;;;;;;;;4971486;28;20086;-76
2022/10/09 05:20:57;;;;;;;18.95;11.00;;;;;;;;;;4970977;28;20055;-76
2022/10/09 05:23:23;;;;;;;22.15;11.73;;;;;;;;;;4971706;28;20094;-76
2022/10/09 05:25:55;;;;;;;21.92;11.27;;;;;;;;;;4971531;28;20138;-76
2022/10/09 05:28:22;;;;;;;21.13;11.70;;;;;;;;;;4971537;28;20104;-76
2022/10/09 05:30:48;;;;;;;20.40;11.00;;;;;;;;;;4971427;28;20089;-76
2022/10/09 05:33:14;;;;;;;20.73;11.68;;;;;;;;;;4971467;28;20051;-76
2022/10/09 05:35:40;;;;;;;16.67;10.95;;;;;;;;;;4971361;28;20043;-76
2022/10/09 05:38:06;;;;;;;17.83;10.38;;;;;;;;;;4970977;28;20050;-76
2022/10/09 05:40:32;;;;;;;21.15;11.63;;;;;;;;;;4970809;28;20047;-76
2022/10/09 05:42:58;;;;;;;18.85;10.85;;;;;;;;;;4969902;28;20050;-76
2022/10/09 05:45:24;;;;;;;17.10;10.48;;;;;;;;;;4969822;28;20043;-76
2022/10/09 05:47:50;;;;;;;18.88;10.93;;;;;;;;;;4971275;28;20537;-76
2022/10/09 05:50:16;;;;;;;19.38;9.85;;;;;;;;;;4970767;28;20493;-77
2022/10/09 05:52:42;;;;;;;18.98;10.90;;;;;;;;;;4971215;28;20072;-76
2022/10/09 05:55:11;;;;;;;18.20;10.40;;;;;;;;;;4971070;28;20126;-76
2022/10/09 05:57:37;;;;;;;17.48;11.32;;;;;;;;;;4971953;28;20172;-76
2022/10/09 06:00:04;;;;;;;18.52;10.25;;;;;;;;;;4974514;28;20078;-76
2022/10/09 06:02:30;;;;;;;18.42;10.57;;;;;;;;;;4973863;28;20204;-76
2022/10/09 06:04:56;;;;;;;18.58;10.85;;;;;;;;;;4974106;28;20441;-76
2022/10/09 06:07:22;;;;;;;15.98;10.48;;;;;;;;;;4973117;28;20490;-76
2022/10/09 06:09:48;;;;;;;16.05;10.38;;;;;;;;;;4974434;28;20516;-76
2022/10/09 06:12:14;;;;;;;16.65;9.93;;;;;;;;;;4973823;28;20062;-76
2022/10/09 06:14:40;;;;;;;15.18;10.40;;;;;;;;;;4957505;28;20047;-76
2022/10/09 06:17:06;;;;;;;15.48;10.25;;;;;;;;;;4974401;28;20398;-76
2022/10/09 06:19:32;;;;;;;17.33;10.90;;;;;;;;;;4956892;28;20506;-76
2022/10/09 06:21:58;;;;;;;17.25;10.68;;;;;;;;;;4973808;28;20047;-76
2022/10/09 06:24:25;;;;;;;17.42;10.23;;;;;;;;;;4974132;28;20047;-76
2022/10/09 06:26:51;;;;;;;15.93;10.05;;;;;;;;;;4973912;28;20512;-77
2022/10/09 06:29:17;;;;;;;17.42;9.55;;;;;;;;;;4972949;28;20043;-76
2022/10/09 06:31:43;;;;;;;16.15;9.65;;;;;;;;;;4973871;28;20143;-76
2022/10/09 06:34:10;;;;;;;16.42;9.93;;;;;;;;;;4973365;28;20054;-77
2022/10/09 06:36:36;;;;;;;16.65;9.40;;;;;;;;;;4974298;28;20046;-76
2022/10/09 06:39:04;;;;;;;15.50;9.07;;;;;;;;;;4974359;28;20058;-77
2022/10/09 06:41:30;;;;;;;14.38;9.15;;;;;;;;;;4974075;28;20051;-76
2022/10/09 06:44:01;;;;;;;13.20;8.63;;;;;;;;;;4973562;28;20096;-76
2022/10/09 06:46:38;;;;;;;13.23;8.30;;;;;;;;;;4972675;28;20049;-76
2022/10/09 06:49:07;;;;;;;14.35;8.68;;;;;;;;;;4973881;28;20400;-76
2022/10/09 06:51:33;;;;;;;13.70;8.32;;;;;;;;;;4973907;28;20070;-76
2022/10/09 06:54:01;;;;;;;12.68;8.02;;;;;;;;;;4973325;28;20039;-76
2022/10/09 06:56:29;;;;;;;11.18;7.68;;;;;;;;;;4973265;28;20083;-76
2022/10/09 06:58:55;;;;;;;13.98;8.05;;;;;;;;;;4973530;28;20051;-76
2022/10/09 07:01:30;;;;;;;12.50;8.10;;;;;;;;;;4973556;28;20054;-76
2022/10/09 07:04:01;;;;;;;14.70;7.97;;;;;;;;;;4973316;28;20055;-76
2022/10/09 07:06:28;;;;;;;11.93;7.28;;;;;;;;;;4973529;28;20130;-76
2022/10/09 07:08:56;;;;;;;11.85;6.50;;;;;;;;;;4973134;28;20043;-76
2022/10/09 07:11:23;;;;;;;11.38;7.63;;;;;;;;;;4973095;28;20054;-76
2022/10/09 07:13:51;;;;;;;11.73;7.18;;;;;;;;;;4973283;28;20051;-76
2022/10/09 07:16:21;;;;;;;12.30;6.80;;;;;;;;;;4973199;28;20043;-76
2022/10/09 07:18:47;;;;;;;14.55;7.28;;;;;;;;;;4971590;28;20080;-77
2022/10/09 07:21:13;;;;;;;13.57;7.30;;;;;;;;;;4972950;28;20051;-76
2022/10/09 07:23:39;;;;;;;11.77;7.20;;;;;;;;;;4973333;28;20057;-77
2022/10/09 07:26:13;;;;;;;14.63;7.32;;;;;;;;;;4972972;28;20489;-76
2022/10/09 07:28:40;;;;;;;8.60;6.15;;;;;;;;;;4973035;28;20164;-76
2022/10/09 07:31:06;;;;;;;9.45;6.30;;;;;;;;;;4973114;28;20047;-76
2022/10/09 07:33:32;;;;;;;13.02;6.82;;;;;;;;;;4972670;28;20054;-76
2022/10/09 07:35:59;;;;;;;10.60;6.20;;;;;;;;;;4972905;28;20118;-77
2022/10/09 07:38:25;;;;;;;9.60;6.13;;;;;;;;;;4972562;28;20498;-76
2022/10/09 07:40:52;;;;;;;13.80;6.30;;;;;;;;;;4972904;28;20512;-76
2022/10/09 07:43:18;;;;;;;9.98;5.95;;;;;;;;;;4971323;28;20492;-76
2022/10/09 07:45:45;;;;;;;10.63;6.10;;;;;;;;;;4971469;28;20129;-76
2022/10/09 07:48:11;;;;;;;8.73;5.93;;;;;;;;;;4973053;28;20050;-76
2022/10/09 07:50:37;;;;;;;8.80;5.72;;;;;;;;;;4972662;28;20363;-77
2022/10/09 07:53:03;;;;;;;9.35;5.82;;;;;;;;;;4973387;28;20062;-77
2022/10/09 07:55:32;;;;;;;9.43;6.15;;;;;;;;;;4973277;28;20478;-77
2022/10/09 07:57:58;;;;;;;9.45;5.10;;;;;;;;;;4955468;28;20104;-77
2022/10/09 08:00:24;;;;;;;7.75;5.20;;;;;;;;;;4972234;28;20051;-77
2022/10/09 08:02:50;;;;;;;7.70;5.38;;;;;;;;;;4972662;28;20486;-77
2022/10/09 08:05:16;;;;;;;8.90;4.75;;;;;;;;;;4971984;28;20043;-76
2022/10/09 08:07:42;;;;;;;10.27;5.10;;;;;;;;;;4972536;28;20054;-77
2022/10/09 08:10:08;;;;;;;8.27;4.78;;;;;;;;;;4972243;28;20363;-76
2022/10/09 08:12:34;;;;;;;9.35;5.20;;;;;;;;;;4972320;28;20065;-76
2022/10/09 08:15:00;;;;;;;9.07;5.28;;;;;;;;;;4972675;28;20042;-77
2022/10/09 08:17:26;;;;;;;8.07;4.90;;;;;;;;;;4971036;28;20063;-76
2022/10/09 08:19:53;;;;;;;9.50;5.28;;;;;;;;;;4971435;28;20413;-76
2022/10/09 08:22:19;;;;;;;8.43;5.25;;;;;;;;;;4972058;28;20100;-77
2022/10/09 08:24:45;;;;;;;12.68;5.00;;;;;;;;;;4970721;28;20054;-77
2022/10/09 08:27:12;;;;;;;8.27;4.75;;;;;;;;;;4972871;28;20049;-76
2022/10/09 08:29:38;;;;;;;8.45;4.57;;;;;;;;;;4972374;28;20043;-77
2022/10/09 08:32:04;;;;;;;7.63;4.47;;;;;;;;;;4972227;28;20051;-77
2022/10/09 08:34:30;;;;;;;11.23;4.28;;;;;;;;;;4971611;28;20412;-76
2022/10/09 08:36:56;;;;;;;9.52;4.43;;;;;;;;;;4954958;28;20100;-77
2022/10/09 08:39:22;;;;;;;8.50;4.40;;;;;;;;;;4972044;28;20047;-76
2022/10/09 08:41:49;;;;;;;7.88;4.60;;;;;;;;;;4972032;28;20122;-77
2022/10/09 08:44:15;;;;;;;8.68;4.30;;;;;;;;;;4971739;28;20059;-77
2022/10/09 08:46:48;;;;;;;8.90;4.07;;;;;;;;;;4972296;28;20389;-77
2022/10/09 08:49:21;;;;;;;8.43;3.85;;;;;;;;;;4971810;28;20047;-76
2022/10/09 08:51:47;;;;;;;9.02;4.15;;;;;;;;;;4970964;28;20047;-77
2022/10/09 08:54:16;;;;;;;9.77;4.50;;;;;;;;;;4971927;28;20043;-76
2022/10/09 08:56:42;;;;;;;10.23;4.65;;;;;;;;;;4971680;28;20055;-77
2022/10/09 08:59:10;;;;;;;10.00;3.60;;;;;;;;;;4971227;28;20043;-76
2022/10/09 09:01:44;;;;;;;8.35;3.70;;;;;;;;;;4971373;28;20058;-76
2022/10/09 09:04:29;;;;;;;10.25;3.30;;;;;;;;;;4970956;28;20047;-77
2022/10/09 09:07:01;;;;;;;9.88;3.70;;;;;;;;;;4970625;28;20050;-77
2022/10/09 09:09:36;;;;;;;7.47;3.95;;;;;;;;;;4971677;28;20466;-77
2022/10/09 09:12:12;;;;;;;6.97;3.50;;;;;;;;;;4970903;28;20070;-77
2022/10/09 09:14:58;;;;;;;5.85;2.90;;;;;;;;;;4971401;28;20450;-77
2022/10/09 09:17:31;;;;;;;8.05;3.35;;;;;;;;;;4964674;28;20085;-77
2022/10/09 09:19:57;;;;;;;11.90;4.10;;;;;;;;;;4971554;28;20159;-77
2022/10/09 09:22:26;;;;;;;6.40;3.55;;;;;;;;;;4971192;28;20051;-77
2022/10/09 09:24:56;;;;;;;7.55;3.17;;;;;;;;;;4971677;28;20486;-77
2022/10/09 09:27:27;;;;;;;4.60;3.38;;;;;;;;;;4971434;28;20075;-77
2022/10/09 09:30:11;;;;;;;7.18;3.30;;;;;;;;;;4971192;28;20513;-77
2022/10/09 09:32:39;;;;;;;6.93;3.40;;;;;;;;;;4973985;28;20107;-77
2022/10/09 09:35:29;;;;;;;6.60;3.17;;;;;;;;;;4974652;28;20129;-77
2022/10/09 09:37:55;;;;;;;9.00;3.58;;;;;;;;;;4934052;29;20056;-77
2022/10/09 09:40:23;;;;;;;7.07;3.60;;;;;;;;;;4934188;29;20372;-77
2022/10/09 09:42:49;;;;;;;6.35;3.05;;;;;;;;;;4934203;29;20066;-77
2022/10/09 09:45:22;;;;;;;5.80;2.92;;;;;;;;;;4933537;29;20055;-77
2022/10/09 09:47:51;;;;;;;7.05;2.60;;;;;;;;;;4934310;29;20040;-77
2022/10/09 09:50:27;;;;;;;7.00;2.83;;;;;;;;;;4933703;29;20475;-76
2022/10/09 09:52:54;;;;;;;8.15;2.60;;;;;;;;;;4933888;29;20383;-77
2022/10/09 09:55:24;;;;;;;9.38;2.97;;;;;;;;;;4933805;29;20059;-77
2022/10/09 09:57:50;;;;;;;6.38;2.55;;;;;;;;;;4902701;28;20434;-77
2022/10/09 10:00:16;;;;;;;8.60;3.30;;;;;;;;;;4917787;29;20055;-77
2022/10/09 10:02:42;;;;;;;5.78;2.40;;;;;;;;;;4933576;29;20109;-77
2022/10/09 10:05:16;;;;;;;6.80;2.78;;;;;;;;;;4933747;29;20048;-77
2022/10/09 10:07:42;;;;;;;6.28;3.17;;;;;;;;;;4933365;29;20109;-77
2022/10/09 10:10:22;;;;;;;6.68;2.95;;;;;;;;;;4933296;29;20051;-77
2022/10/09 10:12:51;;;;;;;7.80;2.92;;;;;;;;;;4933325;29;20562;-77
2022/10/09 10:15:19;;;;;;;5.03;2.38;;;;;;;;;;4960529;28;20489;-77
2022/10/09 10:17:46;;;;;;;10.75;3.10;;;;;;;;;;4973861;28;20054;-77
2022/10/09 10:20:14;;;;;;;8.50;3.45;;;;;;;;;;4974017;28;20551;-77
2022/10/09 10:22:40;;;;;;;7.75;3.25;;;;;;;;;;4974525;28;20125;-77
2022/10/09 10:25:14;;;;;;;6.85;2.70;;;;;;;;;;4972484;28;20055;-77
2022/10/09 10:27:41;;;;;;;9.13;2.85;;;;;;;;;;4973760;28;20470;-77
2022/10/09 10:30:11;;;;;;;5.85;2.58;;;;;;;;;;4973762;28;20180;-77
2022/10/09 10:32:48;;;;;;;4.70;2.55;;;;;;;;;;4974193;28;20122;-77
2022/10/09 10:35:16;;;;;;;8.27;2.38;;;;;;;;;;4973032;28;20101;-77
2022/10/09 10:37:42;;;;;;;5.07;2.15;;;;;;;;;;4973460;28;20481;-77
2022/10/09 10:40:17;;;;;;;5.70;2.28;;;;;;;;;;4972316;28;20053;-77
2022/10/09 10:42:47;;;;;;;5.50;2.10;;;;;;;;;;4972915;28;20130;-77
2022/10/09 10:45:19;;;;;;;16.40;2.80;;;;;;;;;;4973543;28;20081;-77
2022/10/09 10:47:51;;;;;;;5.35;2.75;;;;;;;;;;4973704;28;20050;-77
2022/10/09 10:50:19;;;;;;;8.75;2.60;;;;;;;;;;4973807;28;20089;-77
2022/10/09 10:52:47;;;;;;;7.13;2.20;;;;;;;;;;4973264;28;20382;-77
2022/10/09 10:55:19;;;;;;;5.57;2.40;;;;;;;;;;4972228;28;20047;-76
2022/10/09 10:58:04;;;;;;;7.25;2.45;;;;;;;;;;4973268;28;20042;-76
2022/10/09 11:00:32;;;;;;;6.47;2.53;;;;;;;;;;4973942;28;20054;-77
2022/10/09 11:03:02;;;;;;;6.82;2.67;;;;;;;;;;4973229;28;20059;-77
2022/10/09 11:05:43;;;;;;;4.78;2.42;;;;;;;;;;4973428;28;20069;-77
2022/10/09 11:08:12;;;;;;;11.57;3.22;;;;;;;;;;4973010;28;20398;-77
2022/10/09 11:10:54;;;;;;;8.98;2.80;;;;;;;;;;4973245;28;20184;-77
2022/10/09 11:13:23;;;;;;;6.47;2.90;;;;;;;;;;4973392;28;20047;-77
2022/10/09 11:15:49;;;;;;;6.97;2.70;;;;;;;;;;4973537;28;20043;-77
2022/10/09 11:18:33;;;;;;;7.40;3.28;;;;;;;;;;4974637;28;20131;-77
2022/10/09 11:20:59;;;;;;;7.22;2.95;;;;;;;;;;4973936;28;20054;-77
2022/10/09 11:23:43;;;;;;;8.00;3.08;;;;;;;;;;4974952;28;20505;-77
2022/10/09 11:26:18;;;;;;;8.02;2.70;;;;;;;;;;4975541;28;20042;-77
2022/10/09 11:28:48;;;;;;;6.28;2.47;;;;;;;;;;4975599;28;20132;-77
2022/10/09 11:31:18;;;;;;;7.13;2.63;;;;;;;;;;4974256;28;20047;-77
2022/10/09 11:33:48;;;;;;;5.03;2.15;;;;;;;;;;4973463;28;20054;-77
2022/10/09 11:36:33;;;;;;;5.32;2.40;;;;;;;;;;4972437;28;20517;-77
2022/10/09 11:39:01;;;;;;;4.40;2.10;;;;;;;;;;4971416;28;20051;-76
2022/10/09 11:41:28;;;;;;;6.50;2.13;;;;;;;;;;4972977;28;20070;-77
2022/10/09 11:44:13;;;;;;;7.72;2.30;;;;;;;;;;4972528;28;20448;-77
2022/10/09 11:46:48;;;;;;;15.95;2.75;;;;;;;;;;4972567;28;20474;-77
2022/10/09 11:49:17;;;;;;;5.18;2.50;;;;;;;;;;4972803;28;20416;-77
2022/10/09 11:51:56;;;;;;;6.22;2.00;;;;;;;;;;4973014;28;20402;-77
2022/10/09 11:54:23;;;;;;;5.85;2.10;;;;;;;;;;4973157;28;20123;-77
2022/10/09 11:57:07;;;;;;;6.50;2.45;;;;;;;;;;4972741;28;20043;-77
2022/10/09 11:59:35;;;;;;;5.95;2.10;;;;;;;;;;4955728;28;20086;-76
2022/10/09 12:02:13;;;;;;;7.13;2.65;;;;;;;;;;4972663;28;20069;-77
2022/10/09 12:04:39;;;;;;;4.72;2.50;;;;;;;;;;4972650;28;20516;-76
2022/10/09 12:07:08;;;;;;;7.68;2.40;;;;;;;;;;4972267;28;20051;-76
2022/10/09 12:09:34;;;;;;;6.10;2.47;;;;;;;;;;4972059;28;20520;-77
2022/10/09 12:12:02;;;;;;;5.43;2.30;;;;;;;;;;4972456;28;20382;-76
2022/10/09 12:14:29;;;;;;;8.15;1.90;;;;;;;;;;4972135;28;20539;-77
2022/10/09 12:16:56;;;;;;;4.82;2.00;;;;;;;;;;4972462;28;20525;-76
2022/10/09 12:19:27;;;;;;;5.07;2.00;;;;;;;;;;4972537;28;20507;-77
2022/10/09 12:21:56;;;;;;;5.00;2.00;;;;;;;;;;4972294;28;20055;-77
2022/10/09 12:24:27;;;;;;;8.05;2.50;;;;;;;;;;4972391;28;20043;-76
2022/10/09 12:26:54;;;;;;;5.10;2.10;;;;;;;;;;4972603;28;20041;-77
2022/10/09 12:29:43;;;;;;;3.75;1.83;;;;;;;;;;4971779;28;20405;-77
2022/10/09 12:32:16;;;;;;;5.47;1.92;;;;;;;;;;4967024;28;20101;-77
2022/10/09 12:34:47;;;;;;;3.88;1.80;;;;;;;;;;4972530;28;20042;-76
2022/10/09 12:37:13;;;;;;;5.50;1.80;;;;;;;;;;4972451;28;20077;-76
2022/10/09 12:39:40;;;;;;;3.47;2.20;;;;;;;;;;4971940;28;20100;-76
2022/10/09 12:42:11;;;;;;;5.22;2.05;;;;;;;;;;4972201;28;20038;-77
2022/10/09 12:44:38;;;;;;;5.95;2.00;;;;;;;;;;4971649;28;20046;-76
2022/10/09 12:47:06;;;;;;;7.72;2.40;;;;;;;;;;4971587;28;20054;-76
2022/10/09 12:49:32;;;;;;;4.40;2.03;;;;;;;;;;4970802;28;20134;-76
2022/10/09 12:51:59;;;;;;;4.85;2.13;;;;;;;;;;4971518;28;20046;-76
2022/10/09 12:54:26;;;;;;;5.22;2.05;;;;;;;;;;4971627;28;20047;-76
2022/10/09 12:56:54;;;;;;;5.75;2.30;;;;;;;;;;4972168;28;20058;-76
2022/10/09 12:59:20;;;;;;;5.15;2.55;;;;;;;;;;4971822;28;20173;-76
2022/10/09 13:01:47;;;;;;;7.45;2.63;;;;;;;;;;4971804;28;20077;-76
2022/10/09 13:04:42;;;;;;;6.63;2.50;;;;;;;;;;4971583;28;20525;-76
2022/10/09 13:07:18;;;;;;;7.38;2.95;;;;;;;;;;4964930;28;20086;-77
2022/10/09 13:09:44;;;;;;;8.85;2.95;;;;;;;;;;4974975;28;20401;-77
2022/10/09 13:12:16;;;;;;;6.82;2.30;;;;;;;;;;4974921;28;20046;-76
2022/10/09 13:14:51;;;;;;;5.43;2.20;;;;;;;;;;4975021;28;20126;-76
2022/10/09 13:17:24;;;;;;;5.60;2.25;;;;;;;;;;4975078;28;20505;-76
2022/10/09 13:19:51;;;;;;;6.35;2.80;;;;;;;;;;4974588;28;20062;-76
2022/10/09 13:22:22;;;;;;;7.63;3.05;;;;;;;;;;4975178;28;20058;-76
2022/10/09 13:24:52;;;;;;;7.57;2.97;;;;;;;;;;4975364;28;20134;-76
2022/10/09 13:27:19;;;;;;;5.20;2.70;;;;;;;;;;4974935;28;20058;-76
2022/10/09 13:29:46;;;;;;;7.55;3.08;;;;;;;;;;4974768;28;20042;-76
2022/10/09 13:32:13;;;;;;;6.22;2.88;;;;;;;;;;4975021;28;20419;-76
2022/10/09 13:34:39;;;;;;;6.57;2.40;;;;;;;;;;4974788;28;20073;-76
2022/10/09 13:37:05;;;;;;;7.28;2.78;;;;;;;;;;4975120;28;20043;-76
2022/10/09 13:39:31;;;;;;;6.47;2.78;;;;;;;;;;4974457;28;20046;-76
2022/10/09 13:41:58;;;;;;;9.50;2.90;;;;;;;;;;4973230;28;20047;-76
2022/10/09 13:44:24;;;;;;;8.07;3.00;;;;;;;;;;4974653;28;20381;-76
2022/10/09 13:46:51;;;;;;;7.45;2.58;;;;;;;;;;4974642;28;20043;-76
2022/10/09 13:49:17;;;;;;;7.30;3.13;;;;;;;;;;4974383;28;20093;-76
2022/10/09 13:51:43;;;;;;;5.43;2.83;;;;;;;;;;4974353;28;20051;-76
2022/10/09 13:54:09;;;;;;;4.70;2.40;;;;;;;;;;4974619;28;20039;-76
2022/10/09 13:56:35;;;;;;;8.38;2.70;;;;;;;;;;4972976;28;20047;-76
2022/10/09 13:59:01;;;;;;;7.80;2.90;;;;;;;;;;4973046;28;20079;-76
2022/10/09 14:01:27;;;;;;;6.60;2.58;;;;;;;;;;4974027;28;20145;-77
2022/10/09 14:03:53;;;;;;;4.32;2.20;;;;;;;;;;4974155;28;20054;-76
2022/10/09 14:06:21;;;;;;;7.35;2.75;;;;;;;;;;4974604;28;20047;-76
2022/10/09 14:08:48;;;;;;;4.85;2.72;;;;;;;;;;4972714;28;20417;-76
2022/10/09 14:11:14;;;;;;;6.60;2.85;;;;;;;;;;4974147;28;20047;-76
2022/10/09 14:13:40;;;;;;;6.47;2.85;;;;;;;;;;4973774;28;20085;-76
2022/10/09 14:16:07;;;;;;;6.90;2.72;;;;;;;;;;4974712;28;20063;-76
2022/10/09 14:18:33;;;;;;;9.88;3.35;;;;;;;;;;4972638;28;20035;-76
2022/10/09 14:20:59;;;;;;;7.55;2.95;;;;;;;;;;4973915;28;20059;-76
2022/10/09 14:23:25;;;;;;;9.18;2.90;;;;;;;;;;4973992;28;20122;-76
2022/10/09 14:25:51;;;;;;;7.82;3.22;;;;;;;;;;4974265;28;20092;-76
2022/10/09 14:28:17;;;;;;;5.65;2.63;;;;;;;;;;4974477;28;20042;-76
2022/10/09 14:30:43;;;;;;;7.60;2.72;;;;;;;;;;4973920;28;20051;-77
2022/10/09 14:33:11;;;;;;;7.05;2.80;;;;;;;;;;4973858;28;20104;-76
2022/10/09 14:35:37;;;;;;;7.68;3.22;;;;;;;;;;4973557;28;20515;-76
2022/10/09 14:38:03;;;;;;;8.23;3.25;;;;;;;;;;4973646;28;20126;-76
2022/10/09 14:40:29;;;;;;;8.23;3.53;;;;;;;;;;4973809;28;20082;-76
2022/10/09 14:42:55;;;;;;;7.60;3.38;;;;;;;;;;4973505;28;20039;-76